createdAt,value
2022-11-20T00:01:28.727Z,99958.97
2022-11-20T00:03:58.899Z,99957.09
2022-11-20T00:06:27.471Z,99959.06
2022-11-20T00:09:01.294Z,99961.63
2022-11-20T00:11:30.260Z,99959.94
2022-11-20T00:14:00.337Z,99960.88
2022-11-20T00:16:29.269Z,99967.19
2022-11-20T00:18:56.291Z,99956.59
2022-11-20T00:21:25.368Z,99968.16
2022-11-20T00:23:55.279Z,99968.53
2022-11-20T00:26:24.205Z,99964.97
2022-11-20T00:29:04.110Z,99960.06
2022-11-20T00:31:32.061Z,99972.97
2022-11-20T00:33:58.952Z,99967.91
2022-11-20T00:36:28.132Z,99963.97
2022-11-20T00:38:58.037Z,99965.00
2022-11-20T00:41:25.965Z,99964.88
2022-11-20T00:43:54.444Z,99972.38
2022-11-20T00:46:23.622Z,99968.47
2022-11-20T00:48:50.963Z,99959.81
2022-11-20T00:51:20.257Z,99962.44
2022-11-20T00:53:47.911Z,99963.41
2022-11-20T00:56:18.437Z,99969.41
2022-11-20T00:58:47.990Z,99968.63
2022-11-20T01:01:14.943Z,99972.78
2022-11-20T01:03:44.450Z,99965.22
2022-11-20T01:06:14.556Z,99973.84
2022-11-20T01:08:41.577Z,99965.72
2022-11-20T01:11:14.524Z,99915.91
2022-11-20T01:13:42.765Z,99973.28
2022-11-20T01:16:15.811Z,99975.84
2022-11-20T01:18:45.389Z,99962.25
2022-11-20T01:21:15.711Z,99972.19
2022-11-20T01:23:43.984Z,99958.16
2022-11-20T01:26:32.760Z,99968.53
2022-11-20T01:29:00.592Z,99965.16
2022-11-20T01:31:30.774Z,99964.47
2022-11-20T01:34:00.049Z,99968.84
2022-11-20T01:36:29.903Z,99964.41
2022-11-20T01:38:59.944Z,99973.75
2022-11-20T01:41:47.157Z,99974.81
2022-11-20T01:44:20.030Z,99983.56
2022-11-20T01:47:03.229Z,99981.91
2022-11-20T01:49:42.154Z,99983.41
2022-11-20T01:52:16.252Z,99985.44
2022-11-20T01:54:49.513Z,99988.75
2022-11-20T01:57:18.287Z,99991.81
2022-11-20T01:59:53.826Z,99992.88
2022-11-20T02:02:21.912Z,99981.47
2022-11-20T02:04:52.771Z,100008.00
2022-11-20T02:07:21.083Z,100008.63
2022-11-20T02:09:48.502Z,99963.00
2022-11-20T02:12:35.748Z,100017.16
2022-11-20T02:15:26.294Z,99981.19
2022-11-20T02:17:57.186Z,100019.53
2022-11-20T02:20:24.099Z,100001.31
2022-11-20T02:23:22.929Z,100023.81
2022-11-20T02:25:50.810Z,100012.53
2022-11-20T02:28:19.326Z,100012.94
2022-11-20T02:30:46.246Z,100023.00
2022-11-20T02:33:14.034Z,100037.97
2022-11-20T02:35:43.751Z,100036.13
2022-11-20T02:38:11.063Z,100035.34
2022-11-20T02:40:37.927Z,100039.16
2022-11-20T02:43:04.886Z,100032.53
2022-11-20T02:45:32.621Z,100030.56
2022-11-20T02:47:59.682Z,100026.38
2022-11-20T02:50:26.616Z,100032.53
2022-11-20T02:52:53.736Z,100032.28
2022-11-20T02:55:20.687Z,100033.97
2022-11-20T02:57:47.590Z,100047.56
2022-11-20T03:00:15.182Z,100038.97
2022-11-20T03:02:42.140Z,100030.34
2022-11-20T03:05:09.441Z,100038.41
2022-11-20T03:07:36.366Z,100039.09
2022-11-20T03:10:04.250Z,100036.25
2022-11-20T03:12:31.246Z,100038.91
2022-11-20T03:14:58.160Z,100041.94
2022-11-20T03:17:25.140Z,100037.56
2022-11-20T03:19:52.034Z,100049.38
2022-11-20T03:22:19.104Z,100045.13
2022-11-20T03:24:46.010Z,100045.91
2022-11-20T03:27:13.006Z,100044.75
2022-11-20T03:29:39.934Z,100055.41
2022-11-20T03:32:06.884Z,100060.94
2022-11-20T03:34:33.900Z,100049.63
2022-11-20T03:37:00.794Z,100049.50
2022-11-20T03:39:27.706Z,100052.91
2022-11-20T03:41:54.662Z,100054.63
2022-11-20T03:44:22.826Z,100055.47
2022-11-20T03:46:49.764Z,100052.81
2022-11-20T03:49:16.766Z,100055.31
2022-11-20T03:51:43.724Z,100056.78
2022-11-20T03:54:10.683Z,100065.03
2022-11-20T03:56:40.163Z,100067.75
2022-11-20T03:59:08.075Z,100074.50
2022-11-20T04:01:38.548Z,100066.72
2022-11-20T04:04:06.059Z,100054.34
2022-11-20T04:06:38.524Z,100073.63
2022-11-20T04:09:06.705Z,100075.06
2022-11-20T04:11:35.997Z,100081.88
2022-11-20T04:14:06.951Z,100071.06
2022-11-20T04:16:36.824Z,100082.75
2022-11-20T04:19:11.143Z,100089.28
2022-11-20T04:21:38.588Z,100091.78
2022-11-20T04:24:05.846Z,100092.84
2022-11-20T04:26:33.158Z,100097.63
2022-11-20T04:29:01.604Z,100107.19
2022-11-20T04:31:31.525Z,100105.28
2022-11-20T04:34:04.687Z,100108.81
2022-11-20T04:36:32.782Z,100108.53
2022-11-20T04:39:02.562Z,100101.59
2022-11-20T04:41:32.442Z,100104.50
2022-11-20T04:44:04.129Z,100101.34
2022-11-20T04:46:33.130Z,100116.50
2022-11-20T04:49:00.573Z,100123.41
2022-11-20T04:51:28.446Z,100130.13
2022-11-20T04:53:55.791Z,100120.47
2022-11-20T04:56:22.775Z,100131.34
2022-11-20T04:58:49.991Z,100111.25
2022-11-20T05:01:24.866Z,100134.63
2022-11-20T05:03:52.408Z,100136.56
2022-11-20T05:06:21.872Z,100128.84
2022-11-20T05:08:49.216Z,100137.13
2022-11-20T05:11:21.439Z,100139.63
2022-11-20T05:13:49.381Z,100126.28
2022-11-20T05:16:19.259Z,100147.72
2022-11-20T05:18:46.366Z,100157.09
2022-11-20T05:21:14.875Z,100161.97
2022-11-20T05:23:42.692Z,100150.84
2022-11-20T05:26:14.436Z,100158.69
2022-11-20T05:28:41.493Z,100158.47
2022-11-20T05:31:10.422Z,100152.84
2022-11-20T05:33:37.840Z,100173.69
2022-11-20T05:36:05.571Z,100175.94
2022-11-20T05:38:33.317Z,100161.66
2022-11-20T05:41:11.572Z,100179.38
2022-11-20T05:43:40.479Z,100180.94
2022-11-20T05:46:09.394Z,100176.81
2022-11-20T05:48:38.348Z,100176.81
2022-11-20T05:51:07.968Z,100180.25
2022-11-20T05:53:36.158Z,100191.09
2022-11-20T05:56:06.732Z,100194.69
2022-11-20T05:58:34.221Z,100192.06
2022-11-20T06:01:09.640Z,100184.72
2022-11-20T06:03:36.921Z,100208.75
2022-11-20T06:06:05.711Z,100211.53
2022-11-20T06:08:33.560Z,100213.84
2022-11-20T06:11:05.332Z,100202.28
2022-11-20T06:13:32.889Z,100221.34
2022-11-20T06:16:00.249Z,100216.16
2022-11-20T06:18:29.239Z,100227.00
2022-11-20T06:21:15.003Z,100231.25
2022-11-20T06:23:42.471Z,100237.81
2022-11-20T06:26:12.739Z,100244.44
2022-11-20T06:28:39.980Z,100251.09
2022-11-20T06:31:08.654Z,100248.34
2022-11-20T06:33:35.643Z,100241.50
2022-11-20T06:36:08.897Z,100250.59
2022-11-20T06:38:37.951Z,100242.13
2022-11-20T06:41:06.681Z,100249.69
2022-11-20T06:43:33.630Z,100243.38
2022-11-20T06:46:00.710Z,100243.03
2022-11-20T06:48:29.625Z,100236.75
2022-11-20T06:50:57.107Z,100243.41
2022-11-20T06:53:24.836Z,100239.94
2022-11-20T06:55:52.490Z,100248.28
2022-11-20T06:58:19.626Z,100247.25
2022-11-20T07:00:46.695Z,100235.94
2022-11-20T07:03:14.372Z,100232.50
2022-11-20T07:05:41.447Z,100236.69
2022-11-20T07:08:09.170Z,100243.28
2022-11-20T07:10:36.599Z,100246.78
2022-11-20T07:13:03.716Z,100249.34
2022-11-20T07:15:31.224Z,100249.28
2022-11-20T07:18:01.269Z,100238.31
2022-11-20T07:20:28.795Z,100244.06
2022-11-20T07:22:57.010Z,100248.22
2022-11-20T07:25:25.278Z,100254.16
2022-11-20T07:27:52.191Z,100255.16
2022-11-20T07:30:19.394Z,100259.28
2022-11-20T07:32:52.654Z,100251.88
2022-11-20T07:35:20.124Z,100261.63
2022-11-20T07:37:48.308Z,100255.94
2022-11-20T07:40:15.990Z,100268.25
2022-11-20T07:42:53.274Z,100263.72
2022-11-20T07:45:21.741Z,100252.06
2022-11-20T07:47:49.227Z,100267.97
2022-11-20T07:50:16.561Z,100262.56
2022-11-20T07:52:43.560Z,100263.31
2022-11-20T07:55:11.527Z,100269.53
2022-11-20T07:57:40.244Z,100262.34
2022-11-20T08:00:11.967Z,100265.25
2022-11-20T08:02:42.814Z,100270.00
2022-11-20T08:05:10.947Z,100273.47
2022-11-20T08:07:39.896Z,100277.53
2022-11-20T08:10:08.071Z,100274.59
2022-11-20T08:12:53.696Z,100265.53
2022-11-20T08:15:20.738Z,100279.47
2022-11-20T08:18:08.301Z,100294.59
2022-11-20T08:20:36.001Z,100270.75
2022-11-20T08:23:06.718Z,100260.75
2022-11-20T08:25:38.055Z,100268.13
2022-11-20T08:28:19.920Z,100284.75
2022-11-20T08:30:48.058Z,100288.97
2022-11-20T08:33:15.140Z,100299.22
2022-11-20T08:35:42.856Z,100300.75
2022-11-20T08:38:10.606Z,100289.63
2022-11-20T08:40:37.521Z,100296.63
2022-11-20T08:43:04.614Z,100302.56
2022-11-20T08:45:34.755Z,100307.84
2022-11-20T08:48:05.253Z,100307.91
2022-11-20T08:50:33.931Z,100308.53
2022-11-20T08:53:07.302Z,100314.25
2022-11-20T08:55:36.636Z,100319.78
2022-11-20T08:58:07.672Z,100316.81
2022-11-20T09:00:35.326Z,100323.56
2022-11-20T09:03:02.856Z,100329.97
2022-11-20T09:05:30.660Z,100337.28
2022-11-20T09:07:58.509Z,100347.44
2022-11-20T09:10:25.724Z,100341.78
2022-11-20T09:12:53.890Z,100344.84
2022-11-20T09:15:20.843Z,100352.72
2022-11-20T09:18:06.126Z,100370.19
2022-11-20T09:20:33.176Z,100360.50
2022-11-20T09:23:00.084Z,100364.06
2022-11-20T09:25:27.130Z,100366.84
2022-11-20T09:27:58.188Z,100320.50
2022-11-20T09:30:25.804Z,100388.22
2022-11-20T09:32:52.762Z,100399.97
2022-11-20T09:35:19.678Z,100393.94
2022-11-20T09:37:46.829Z,100399.22
2022-11-20T09:40:23.952Z,100400.22
2022-11-20T09:42:58.881Z,100402.03
2022-11-20T09:45:32.026Z,100404.09
2022-11-20T09:48:04.795Z,100392.16
2022-11-20T09:50:48.906Z,100392.59
2022-11-20T09:53:36.205Z,100393.50
2022-11-20T09:56:05.867Z,100393.03
2022-11-20T09:58:40.724Z,100386.66
2022-11-20T10:01:15.375Z,100397.06
2022-11-20T10:04:04.258Z,100396.50
2022-11-20T10:06:34.483Z,100407.44
2022-11-20T10:09:13.685Z,100398.22
2022-11-20T10:11:57.484Z,100409.44
2022-11-20T10:14:36.021Z,100401.09
2022-11-20T10:17:11.613Z,100407.28
2022-11-20T10:20:15.796Z,100412.16
2022-11-20T10:23:06.836Z,100406.72
2022-11-20T10:25:42.952Z,100409.78
2022-11-20T10:28:31.761Z,100414.53
2022-11-20T10:31:04.226Z,100411.81
2022-11-20T10:33:57.039Z,100416.69
2022-11-20T10:36:29.408Z,100413.38
2022-11-20T10:39:15.677Z,100410.72
2022-11-20T10:41:43.307Z,100407.13
2022-11-20T10:44:40.319Z,100419.41
2022-11-20T10:47:14.273Z,100427.53
2022-11-20T10:49:43.629Z,100410.19
2022-11-20T10:52:30.777Z,100428.53
2022-11-20T10:55:37.885Z,100435.69
2022-11-20T10:58:20.229Z,100444.38
2022-11-20T11:00:47.279Z,100434.00
2022-11-20T11:03:29.727Z,100420.53
2022-11-20T11:06:07.762Z,100429.47
2022-11-20T11:08:39.520Z,100451.91
2022-11-20T11:11:29.820Z,100447.38
2022-11-20T11:14:14.978Z,100452.59
2022-11-20T11:16:52.278Z,100452.53
2022-11-20T11:19:19.286Z,100458.00
2022-11-20T11:21:55.601Z,100446.97
2022-11-20T11:24:41.780Z,100455.63
2022-11-20T11:27:17.991Z,100457.22
2022-11-20T11:29:46.064Z,100459.28
2022-11-20T11:32:22.452Z,100458.88
2022-11-20T11:35:20.176Z,100462.31
2022-11-20T11:37:49.391Z,100462.31
2022-11-20T11:40:25.761Z,100455.06
2022-11-20T11:43:00.722Z,100458.94
2022-11-20T11:45:28.226Z,100448.22
2022-11-20T11:48:02.094Z,100458.75
2022-11-20T11:50:30.663Z,100458.81
2022-11-20T11:53:17.981Z,100468.00
2022-11-20T11:55:47.960Z,100454.72
2022-11-20T11:58:28.723Z,100464.97
2022-11-20T12:01:18.513Z,100469.31
2022-11-20T12:04:02.671Z,100467.53
2022-11-20T12:06:32.738Z,100460.25
2022-11-20T12:09:05.231Z,100472.09
2022-11-20T12:12:02.989Z,100470.03
2022-11-20T12:14:39.885Z,100469.75
2022-11-20T12:17:08.982Z,100473.44
2022-11-20T12:19:36.499Z,100477.47
2022-11-20T12:22:31.287Z,100472.34
2022-11-20T12:25:19.708Z,100470.94
2022-11-20T12:27:58.888Z,100467.47
2022-11-20T12:30:26.191Z,100459.81
2022-11-20T12:33:44.642Z,100463.22
2022-11-20T12:36:51.269Z,100465.16
2022-11-20T12:39:37.143Z,100476.91
2022-11-20T12:42:32.530Z,100466.69
2022-11-20T12:45:26.093Z,100465.09
2022-11-20T12:48:17.183Z,100471.81
2022-11-20T12:51:15.497Z,100472.00
2022-11-20T12:54:01.885Z,100470.34
2022-11-20T12:57:06.264Z,100478.97
2022-11-20T13:00:00.978Z,100486.50
2022-11-20T13:02:35.472Z,100477.16
2022-11-20T13:05:19.234Z,100490.69
2022-11-20T13:07:48.035Z,100483.75
2022-11-20T13:10:32.543Z,100490.03
2022-11-20T13:13:18.606Z,100500.25
2022-11-20T13:15:51.271Z,100497.66
2022-11-20T13:18:19.000Z,100495.31
2022-11-20T13:20:47.761Z,100493.25
2022-11-20T13:23:26.509Z,100494.47
2022-11-20T13:26:23.862Z,100503.63
2022-11-20T13:29:12.248Z,100506.50
2022-11-20T13:31:44.802Z,100476.44
2022-11-20T13:34:24.023Z,100508.09
2022-11-20T13:36:54.160Z,100503.44
2022-11-20T13:39:30.074Z,100516.31
2022-11-20T13:42:03.305Z,100523.84
2022-11-20T13:44:40.450Z,100518.31
2022-11-20T13:47:27.982Z,100509.59
2022-11-20T13:49:58.138Z,100517.75
2022-11-20T13:52:51.088Z,100525.16
2022-11-20T13:55:45.932Z,100521.28
2022-11-20T13:58:51.586Z,100492.88
2022-11-20T14:01:33.335Z,100532.56
2022-11-20T14:04:07.337Z,100529.47
2022-11-20T14:06:43.102Z,100534.56
2022-11-20T14:09:34.682Z,100529.47
2022-11-20T14:12:04.707Z,100530.06
2022-11-20T14:14:35.122Z,100523.84
2022-11-20T14:17:19.418Z,100537.66
2022-11-20T14:19:51.516Z,100533.88
2022-11-20T14:22:27.081Z,100552.66
2022-11-20T14:25:15.342Z,100557.56
2022-11-20T14:27:56.619Z,100553.16
2022-11-20T14:30:45.407Z,100558.88
2022-11-20T14:33:18.309Z,100552.91
2022-11-20T14:35:50.003Z,100543.44
2022-11-20T14:38:26.888Z,100543.22
2022-11-20T14:40:55.083Z,100561.56
2022-11-20T14:43:40.218Z,100570.44
2022-11-20T14:46:12.074Z,100576.16
2022-11-20T14:48:43.750Z,100577.47
2022-11-20T14:51:14.314Z,100582.69
2022-11-20T14:53:42.843Z,100563.44
2022-11-20T14:56:10.961Z,100570.50
2022-11-20T14:58:41.970Z,100565.38
2022-11-20T15:01:15.449Z,100560.88
2022-11-20T15:03:47.092Z,100560.03
2022-11-20T15:06:15.297Z,100560.56
2022-11-20T15:08:58.870Z,100568.28
2022-11-20T15:11:34.265Z,100565.13
2022-11-20T15:14:12.085Z,100560.69
2022-11-20T15:16:41.937Z,100559.88
2022-11-20T15:19:19.315Z,100555.59
2022-11-20T15:21:48.537Z,100551.22
2022-11-20T15:24:16.974Z,100553.75
2022-11-20T15:26:45.315Z,100545.84
2022-11-20T15:29:19.996Z,100547.41
2022-11-20T15:31:53.378Z,100539.47
2022-11-20T15:34:30.761Z,100547.34
2022-11-20T15:37:00.946Z,100554.16
2022-11-20T15:39:29.335Z,100561.63
2022-11-20T15:41:57.225Z,100561.88
2022-11-20T15:44:25.228Z,100553.69
2022-11-20T15:46:53.730Z,100494.19
2022-11-20T15:49:24.011Z,100542.44
2022-11-20T15:51:53.793Z,100549.97
2022-11-20T15:54:24.067Z,100544.56
2022-11-20T15:56:58.052Z,100550.41
2022-11-20T15:59:25.484Z,100557.09
2022-11-20T16:01:56.403Z,100564.56
2022-11-20T16:04:24.250Z,100568.00
2022-11-20T16:06:52.043Z,100561.16
2022-11-20T16:09:19.011Z,100559.59
2022-11-20T16:11:46.715Z,100561.75
2022-11-20T16:14:33.574Z,100564.09
2022-11-20T16:17:01.269Z,100559.06
2022-11-20T16:19:28.652Z,100556.47
2022-11-20T16:22:02.287Z,100552.19
2022-11-20T16:24:33.263Z,100537.78
2022-11-20T16:27:20.043Z,100526.59
2022-11-20T16:29:47.638Z,100528.31
2022-11-20T16:32:14.995Z,100530.00
2022-11-20T16:34:41.932Z,100540.09
2022-11-20T16:37:08.939Z,100531.72
2022-11-20T16:39:35.934Z,100535.31
2022-11-20T16:42:06.317Z,100542.22
2022-11-20T16:44:33.198Z,100535.63
2022-11-20T16:47:00.179Z,100543.91
2022-11-20T16:49:27.127Z,100562.34
2022-11-20T16:51:54.005Z,100559.63
2022-11-20T16:54:21.601Z,100553.47
2022-11-20T16:56:48.956Z,100554.25
2022-11-20T16:59:16.072Z,100556.69
2022-11-20T17:01:44.182Z,100555.16
2022-11-20T17:04:11.315Z,100550.03
2022-11-20T17:06:41.616Z,100561.84
2022-11-20T17:09:11.400Z,100530.00
2022-11-20T17:11:38.490Z,100545.00
2022-11-20T17:14:09.381Z,100543.19
2022-11-20T17:16:37.125Z,100540.63
2022-11-20T17:19:05.591Z,100521.44
2022-11-20T17:21:35.995Z,100541.63
2022-11-20T17:24:05.550Z,100548.34
2022-11-20T17:26:33.215Z,100550.25
2022-11-20T17:29:03.336Z,100561.38
2022-11-20T17:31:32.585Z,100553.47
2022-11-20T17:34:00.496Z,100551.91
2022-11-20T17:36:28.540Z,100541.16
2022-11-20T17:38:55.444Z,100556.13
2022-11-20T17:41:25.368Z,100558.03
2022-11-20T17:43:57.128Z,100566.47
2022-11-20T17:46:30.016Z,100570.84
2022-11-20T17:48:57.048Z,100557.47
2022-11-20T17:51:26.803Z,100557.34
2022-11-20T17:53:58.596Z,100564.31
2022-11-20T17:56:44.325Z,100566.19
2022-11-20T17:59:13.007Z,100563.63
2022-11-20T18:01:43.227Z,100559.41
2022-11-20T18:04:11.462Z,100564.50
2022-11-20T18:06:39.055Z,100496.69
2022-11-20T18:09:07.191Z,100538.97
2022-11-20T18:11:39.335Z,100537.47
2022-11-20T18:14:44.617Z,100536.31
2022-11-20T18:17:13.619Z,100525.38
2022-11-20T18:19:55.567Z,100540.59
2022-11-20T18:22:31.151Z,100544.66
2022-11-20T18:24:58.637Z,100544.78
2022-11-20T18:27:25.675Z,100558.47
2022-11-20T18:29:52.901Z,100561.28
2022-11-20T18:32:23.715Z,100565.41
2022-11-20T18:34:51.475Z,100565.19
2022-11-20T18:37:19.210Z,100554.34
2022-11-20T18:39:46.330Z,100553.16
2022-11-20T18:42:34.572Z,100563.38
2022-11-20T18:45:04.543Z,100557.59
2022-11-20T18:47:38.129Z,100561.56
2022-11-20T18:50:07.495Z,100573.25
2022-11-20T18:52:39.503Z,100580.91
2022-11-20T18:55:07.565Z,100576.53
2022-11-20T18:57:34.976Z,100570.50
2022-11-20T19:00:08.304Z,100558.38
2022-11-20T19:02:41.154Z,100550.03
2022-11-20T19:05:14.156Z,100558.50
2022-11-20T19:07:41.339Z,100546.47
2022-11-20T19:10:08.925Z,100519.63
2022-11-20T19:12:35.892Z,100547.13
2022-11-20T19:15:03.251Z,100529.19
2022-11-20T19:17:33.417Z,100530.84
2022-11-20T19:20:00.601Z,100541.13
2022-11-20T19:22:28.082Z,100525.69
2022-11-20T19:24:55.239Z,100528.25
2022-11-20T19:27:22.645Z,100530.06
2022-11-20T19:29:49.965Z,100527.50
2022-11-20T19:32:16.931Z,100521.59
2022-11-20T19:34:44.038Z,100520.53
2022-11-20T19:37:11.045Z,100512.88
2022-11-20T19:39:38.202Z,100510.13
2022-11-20T19:42:05.549Z,100518.47
2022-11-20T19:44:33.170Z,100523.63
2022-11-20T19:47:00.829Z,100511.75
2022-11-20T19:49:28.124Z,100516.69
2022-11-20T19:51:55.078Z,100508.13
2022-11-20T19:54:22.211Z,100518.22
2022-11-20T19:56:50.694Z,100533.63
2022-11-20T19:59:18.008Z,100529.50
2022-11-20T20:01:45.383Z,100536.25
2022-11-20T20:04:12.315Z,100532.41
2022-11-20T20:06:40.341Z,100543.84
2022-11-20T20:09:09.539Z,100544.44
2022-11-20T20:11:37.895Z,100544.50
2022-11-20T20:14:06.823Z,100559.09
2022-11-20T20:16:35.321Z,100541.50
2022-11-20T20:19:04.541Z,100558.84
2022-11-20T20:21:35.220Z,100568.06
2022-11-20T20:24:02.557Z,100559.41
2022-11-20T20:26:31.944Z,100549.38
2022-11-20T20:28:59.675Z,100561.47
2022-11-20T20:31:28.448Z,100566.28
2022-11-20T20:33:56.267Z,100545.94
2022-11-20T20:36:24.477Z,100552.09
2022-11-20T20:38:56.123Z,100563.44
2022-11-20T20:41:24.874Z,100550.63
2022-11-20T20:44:11.228Z,100548.72
2022-11-20T20:46:39.340Z,100557.06
2022-11-20T20:49:07.500Z,100551.69
2022-11-20T20:51:34.591Z,100548.00
2022-11-20T20:54:01.678Z,100569.03
2022-11-20T20:56:28.955Z,100527.31
2022-11-20T20:58:55.832Z,100570.72
2022-11-20T21:01:23.222Z,100541.91
2022-11-20T21:03:50.245Z,100565.22
2022-11-20T21:06:17.306Z,100572.03
2022-11-20T21:08:44.806Z,100556.63
2022-11-20T21:11:15.012Z,100560.84
2022-11-20T21:13:43.399Z,100560.91
2022-11-20T21:16:11.456Z,100562.59
2022-11-20T21:18:38.890Z,100565.22
2022-11-20T21:21:26.388Z,100557.50
2022-11-20T21:23:53.724Z,100570.38
2022-11-20T21:26:21.588Z,100574.53
2022-11-20T21:28:50.136Z,100546.78
2022-11-20T21:31:22.011Z,100568.56
2022-11-20T21:33:50.340Z,100565.41
2022-11-20T21:36:20.139Z,100566.22
2022-11-20T21:38:48.406Z,100559.34
2022-11-20T21:41:15.951Z,100557.00
2022-11-20T21:43:43.081Z,100551.28
2022-11-20T21:46:12.115Z,100553.97
2022-11-20T21:48:40.736Z,100542.84
2022-11-20T21:51:19.213Z,100537.00
2022-11-20T21:53:47.421Z,100541.16
2022-11-20T21:56:20.129Z,100544.78
2022-11-20T21:58:48.692Z,100550.63
2022-11-20T22:01:20.884Z,100539.75
2022-11-20T22:03:53.631Z,100569.94
2022-11-20T22:06:21.485Z,100570.91
2022-11-20T22:08:49.061Z,100572.91
2022-11-20T22:11:18.945Z,100562.66
2022-11-20T22:14:05.534Z,100558.94
2022-11-20T22:16:36.536Z,100566.47
2022-11-20T22:19:04.887Z,100561.56
2022-11-20T22:21:32.188Z,100555.53
2022-11-20T22:24:00.100Z,100561.38
2022-11-20T22:26:29.227Z,100554.56
2022-11-20T22:28:58.420Z,100555.47
2022-11-20T22:31:27.651Z,100562.94
2022-11-20T22:33:54.744Z,100556.94
2022-11-20T22:36:24.016Z,100550.78
2022-11-20T22:38:51.532Z,100548.34
2022-11-20T22:41:21.200Z,100541.50
2022-11-20T22:43:48.685Z,100527.03
2022-11-20T22:46:17.717Z,100539.72
2022-11-20T22:48:53.032Z,100543.44
2022-11-20T22:51:22.909Z,100560.63
2022-11-20T22:53:50.175Z,100555.41
2022-11-20T22:56:17.861Z,100537.47
2022-11-20T22:58:46.774Z,100540.50
2022-11-20T23:01:14.824Z,100533.59
2022-11-20T23:03:45.448Z,100535.22
2022-11-20T23:06:12.985Z,100529.19
2022-11-20T23:08:41.726Z,100512.19
2022-11-20T23:11:16.156Z,100521.53
2022-11-20T23:13:44.848Z,100520.84
2022-11-20T23:16:16.947Z,100511.41
2022-11-20T23:18:45.041Z,100516.44
2022-11-20T23:21:18.228Z,100500.34
2022-11-20T23:23:50.524Z,100498.00
2022-11-20T23:26:19.909Z,100503.81
2022-11-20T23:28:47.149Z,100492.66
2022-11-20T23:31:15.774Z,100501.88
2022-11-20T23:33:45.605Z,100509.63
2022-11-20T23:36:13.832Z,100493.53
2022-11-20T23:38:41.448Z,100501.88
2022-11-20T23:41:08.887Z,100498.50
2022-11-20T23:43:35.857Z,100511.16
2022-11-20T23:46:03.743Z,100512.25
2022-11-20T23:48:35.098Z,100506.22
2022-11-20T23:51:02.537Z,100502.72
2022-11-20T23:53:29.758Z,100491.72
2022-11-20T23:55:59.690Z,100491.53
2022-11-20T23:58:32.756Z,100492.84
